Time;durP1;ratioP1;P1;durP2;ratioP2;P2;SDS_P1;SDS_P2;PMS_P1;PMS_P2;Temp;Humidity;BMP_temperature;BMP_pressure;BME280_temperature;BME280_humidity;BME280_pressure;Samples;Min_cycle;Max_cycle;Signal;HPM_P1;HPM_P2
2021/09/20 00:00:53;;;;;;;28.76;25.67;;;;;;;17.47;78.18;100066.59;444213;116;930181;-86
2021/09/20 00:01:56;;;;;;;27.35;25.38;;;;;;;17.48;78.18;100061.88;444107;116;922595;-82
2021/09/20 00:03:00;;;;;;;27.73;25.18;;;;;;;17.47;78.15;100072.10;443861;118;930196;-83
2021/09/20 00:04:04;;;;;;;25.96;24.05;;;;;;;17.48;78.14;100067.39;444331;118;922303;-83
2021/09/20 00:05:08;;;;;;;27.72;25.58;;;;;;;17.47;78.17;100074.03;443139;118;930255;-82
2021/09/20 00:06:12;;;;;;;27.34;25.30;;;;;;;17.49;78.17;100077.32;442862;118;922699;-83
2021/09/20 00:07:15;;;;;;;28.07;25.95;;;;;;;17.48;78.12;100070.14;443581;118;922533;-83
2021/09/20 00:08:19;;;;;;;27.89;25.80;;;;;;;17.49;78.07;100075.39;442399;118;930210;-84
2021/09/20 00:09:22;;;;;;;29.39;27.07;;;;;;;17.49;77.97;100075.39;443786;118;923058;-85
2021/09/20 00:10:27;;;;;;;27.29;25.39;;;;;;;17.49;77.97;100078.16;442144;118;930410;-82
2021/09/20 00:11:31;;;;;;;27.79;25.36;;;;;;;17.49;78.04;100072.64;443864;118;922457;-84
2021/09/20 00:12:35;;;;;;;26.82;24.66;;;;;;;17.49;77.95;100075.39;448730;116;930371;-84
2021/09/20 00:13:38;;;;;;;27.55;25.25;;;;;;;17.49;77.91;100080.08;450870;116;922546;-84
2021/09/20 00:14:42;;;;;;;27.21;25.29;;;;;;;17.49;77.93;100080.08;449803;116;930254;-83
2021/09/20 00:15:45;;;;;;;29.23;26.71;;;;;;;17.50;77.95;100081.73;449235;116;922838;-83
2021/09/20 00:16:49;;;;;;;28.51;26.49;;;;;;;17.50;77.94;100079.81;450294;116;923769;-85
2021/09/20 00:17:53;;;;;;;27.79;25.86;;;;;;;17.53;77.94;100080.38;448174;114;923126;-83
2021/09/20 00:18:56;;;;;;;27.36;25.23;;;;;;;17.53;77.87;100078.45;450284;116;930219;-82
2021/09/20 00:20:00;;;;;;;27.82;25.60;;;;;;;17.55;77.80;100083.67;448792;116;922994;-82
2021/09/20 00:21:04;;;;;;;26.53;24.49;;;;;;;17.55;77.71;100090.02;451607;116;922587;-85
2021/09/20 00:22:09;;;;;;;27.01;24.82;;;;;;;17.54;77.66;100088.35;451761;116;923490;-84
2021/09/20 00:23:12;;;;;;;26.84;25.05;;;;;;;17.53;77.55;100092.23;450387;116;923013;-84
2021/09/20 00:24:17;;;;;;;25.71;23.94;;;;;;;17.51;77.58;100095.26;450453;114;923018;-84
2021/09/20 00:25:21;;;;;;;26.09;24.29;;;;;;;17.51;77.58;100095.26;449219;116;930053;-83
2021/09/20 00:26:25;;;;;;;26.29;24.34;;;;;;;17.52;77.50;100093.33;451137;116;930290;-84
2021/09/20 00:27:28;;;;;;;25.13;23.54;;;;;;;17.50;77.46;100096.34;449061;116;923009;-83
2021/09/20 00:28:32;;;;;;;24.52;22.81;;;;;;;17.50;77.44;100090.01;450340;116;922950;-82
2021/09/20 00:29:35;;;;;;;27.14;25.35;;;;;;;17.48;77.44;100094.95;448922;116;923033;-83
2021/09/20 00:30:40;;;;;;;25.57;23.16;;;;;;;17.49;77.49;100094.69;452411;116;923153;-85
2021/09/20 00:31:44;;;;;;;25.37;23.56;;;;;;;17.48;77.41;100097.70;450700;116;930323;-84
2021/09/20 00:32:47;;;;;;;25.17;23.48;;;;;;;17.48;77.35;100094.95;450701;116;922834;-82
2021/09/20 00:33:51;;;;;;;25.81;23.78;;;;;;;17.46;77.33;100086.98;451045;114;930420;-84
2021/09/20 00:34:55;;;;;;;24.44;22.88;;;;;;;17.45;77.35;100090.83;450019;116;930237;-84
2021/09/20 00:35:58;;;;;;;25.08;23.28;;;;;;;17.45;77.33;100085.31;449698;116;923050;-83
2021/09/20 00:37:02;;;;;;;25.16;23.54;;;;;;;17.45;77.28;100084.48;448873;116;930272;-83
2021/09/20 00:38:06;;;;;;;24.80;22.99;;;;;;;17.43;77.24;100086.67;449408;116;922702;-83
2021/09/20 00:39:09;;;;;;;24.32;22.52;;;;;;;17.42;77.20;100082.28;450876;116;922952;-83
2021/09/20 00:40:13;;;;;;;25.10;23.42;;;;;;;17.38;77.62;100081.15;452814;116;922893;-84
2021/09/20 00:41:17;;;;;;;25.99;24.14;;;;;;;17.38;77.62;100081.15;449235;116;922509;-84
2021/09/20 00:42:21;;;;;;;24.44;22.56;;;;;;;17.38;77.26;100095.77;449057;114;922664;-84
2021/09/20 00:43:24;;;;;;;25.44;23.67;;;;;;;17.35;77.29;100081.70;449437;116;923031;-83
2021/09/20 00:44:28;;;;;;;24.71;22.74;;;;;;;17.35;77.29;100087.22;451179;116;930432;-83
2021/09/20 00:45:31;;;;;;;25.46;23.76;;;;;;;17.33;77.29;100092.16;451088;116;929891;-84
2021/09/20 00:46:37;;;;;;;25.46;23.59;;;;;;;17.32;77.33;100082.23;442702;118;923065;-83
2021/09/20 00:47:40;;;;;;;24.56;22.82;;;;;;;17.31;77.28;100083.36;438646;118;922749;-83
2021/09/20 00:48:44;;;;;;;24.39;22.59;;;;;;;17.30;77.25;100078.94;448736;115;930091;-84
2021/09/20 00:49:48;;;;;;;25.56;23.77;;;;;;;17.27;77.25;100077.54;449406;117;930182;-84
2021/09/20 00:50:52;;;;;;;26.14;24.08;;;;;;;17.25;77.25;100088.02;451166;117;922950;-84
2021/09/20 00:51:55;;;;;;;25.01;23.12;;;;;;;17.23;77.27;100076.44;449490;116;922457;-83
2021/09/20 00:52:59;;;;;;;26.02;24.18;;;;;;;17.23;77.36;100078.36;452085;116;922673;-83
2021/09/20 00:54:03;;;;;;;24.44;22.84;;;;;;;17.22;77.41;100084.96;450093;117;922822;-83
2021/09/20 00:55:07;;;;;;;25.91;24.12;;;;;;;17.21;77.41;100083.30;450351;117;929962;-85
2021/09/20 00:56:13;;;;;;;25.57;23.94;;;;;;;17.20;77.33;100081.67;450956;116;929885;-82
2021/09/20 00:57:17;;;;;;;26.41;24.43;;;;;;;17.19;77.38;100077.25;449806;117;922389;-81
2021/09/20 00:58:21;;;;;;;26.25;24.44;;;;;;;17.19;77.38;100080.00;449430;117;922997;-83
2021/09/20 00:59:25;;;;;;;24.99;23.26;;;;;;;17.19;77.40;100071.74;450986;117;922987;-83
2021/09/20 01:00:29;;;;;;;24.14;22.47;;;;;;;17.20;77.45;100084.42;449266;115;922683;-83
2021/09/20 01:01:33;;;;;;;23.69;22.22;;;;;;;17.20;77.56;100078.91;450204;117;923002;-82
2021/09/20 01:02:37;;;;;;;24.20;22.71;;;;;;;17.22;77.65;100072.02;450186;115;922839;-83
2021/09/20 01:03:41;;;;;;;25.32;23.58;;;;;;;17.24;77.69;100071.75;450143;117;930210;-83
2021/09/20 01:04:45;;;;;;;24.65;22.97;;;;;;;17.27;77.67;100073.95;448988;116;922731;-82
2021/09/20 01:05:49;;;;;;;23.99;22.37;;;;;;;17.28;77.61;100076.45;446824;116;929958;-83
2021/09/20 01:06:52;;;;;;;24.30;22.66;;;;;;;17.29;77.57;100069.84;453191;114;922287;-84
2021/09/20 01:07:56;;;;;;;23.31;21.68;;;;;;;17.31;77.54;100075.09;443503;117;929962;-84
2021/09/20 01:08:59;;;;;;;24.82;22.85;;;;;;;17.32;77.47;100074.80;446650;116;922778;-83
2021/09/20 01:10:04;;;;;;;24.86;23.04;;;;;;;17.33;77.45;100078.38;445028;118;923030;-82
2021/09/20 01:11:08;;;;;;;25.11;23.31;;;;;;;17.33;77.42;100072.88;443856;118;930400;-83
2021/09/20 01:12:12;;;;;;;24.90;22.83;;;;;;;17.32;77.37;100080.31;448880;116;922280;-83
2021/09/20 01:13:15;;;;;;;24.41;22.66;;;;;;;17.34;77.34;100077.29;450970;117;930427;-83
2021/09/20 01:14:19;;;;;;;23.81;22.27;;;;;;;17.35;77.25;100081.70;450887;117;922558;-83
2021/09/20 01:15:24;;;;;;;24.77;22.66;;;;;;;17.34;77.11;100072.61;451459;115;922789;-82
2021/09/20 01:16:30;;;;;;;23.82;22.28;;;;;;;17.32;77.12;100076.72;451104;115;922340;-82
2021/09/20 01:17:33;;;;;;;24.20;22.21;;;;;;;17.32;77.18;100073.97;451674;117;922418;-83
2021/09/20 01:18:37;;;;;;;23.75;22.29;;;;;;;17.31;77.25;100073.14;450010;115;922621;-84
2021/09/20 01:19:41;;;;;;;24.08;22.29;;;;;;;17.33;77.26;100070.12;447431;117;923448;-84
2021/09/20 01:20:46;;;;;;;24.51;22.62;;;;;;;17.34;77.20;100077.29;449985;115;922543;-84
2021/09/20 01:21:52;;;;;;;24.91;22.93;;;;;;;17.35;77.05;100070.69;449137;117;922457;-83
2021/09/20 01:22:58;;;;;;;23.82;22.26;;;;;;;17.33;76.92;100075.63;448569;117;923322;-83
2021/09/20 01:24:03;;;;;;;23.81;22.21;;;;;;;17.31;76.91;100073.14;448641;115;923117;-85
2021/09/20 01:25:09;;;;;;;24.77;23.07;;;;;;;17.30;76.88;100078.94;453630;115;923025;-84
2021/09/20 01:26:15;;;;;;;24.18;22.41;;;;;;;17.27;76.77;100074.78;447621;117;922970;-84
2021/09/20 01:27:19;;;;;;;27.09;25.29;;;;;;;17.24;76.70;100077.27;447006;117;922983;-84
2021/09/20 01:28:22;;;;;;;25.57;23.73;;;;;;;17.21;76.72;100075.03;448042;117;922704;-83
2021/09/20 01:29:26;;;;;;;26.24;24.39;;;;;;;17.18;76.78;100075.59;447957;117;922554;-86
2021/09/20 01:30:30;;;;;;;27.42;25.52;;;;;;;17.15;76.79;100079.70;447026;117;930131;-83
2021/09/20 01:31:34;;;;;;;27.52;25.56;;;;;;;17.12;76.79;100079.42;444824;117;922386;-84
2021/09/20 01:32:37;;;;;;;26.65;24.78;;;;;;;17.08;76.82;100071.71;446740;117;923151;-84
2021/09/20 01:33:41;;;;;;;26.65;24.37;;;;;;;17.05;76.87;100076.91;446113;117;922580;-84
2021/09/20 01:34:45;;;;;;;25.80;24.15;;;;;;;17.02;76.92;100070.03;448593;116;930230;-83
2021/09/20 01:35:49;;;;;;;25.58;23.81;;;;;;;17.01;76.99;100073.05;447779;117;922507;-83
2021/09/20 01:36:54;;;;;;;25.01;23.18;;;;;;;16.99;77.09;100067.80;447404;116;923012;-82
2021/09/20 01:37:58;;;;;;;24.60;23.04;;;;;;;16.98;77.25;100071.64;446626;117;922510;-83
2021/09/20 01:39:01;;;;;;;26.74;24.41;;;;;;;16.99;77.27;100075.23;444620;117;922637;-83
2021/09/20 01:40:06;;;;;;;24.12;22.49;;;;;;;16.98;77.43;100065.34;446331;117;930102;-82
2021/09/20 01:41:09;;;;;;;24.71;22.76;;;;;;;17.00;77.48;100065.88;448435;117;922429;-83
2021/09/20 01:42:13;;;;;;;23.76;22.20;;;;;;;17.00;77.54;100072.22;448359;117;930279;-81
2021/09/20 01:43:16;;;;;;;25.11;23.17;;;;;;;17.01;77.45;100067.54;448573;117;929700;-83
2021/09/20 01:44:20;;;;;;;25.22;23.57;;;;;;;17.01;77.40;100068.38;446320;116;922464;-83
2021/09/20 01:45:25;;;;;;;25.98;24.06;;;;;;;17.01;77.38;100067.54;448324;117;922995;-82
2021/09/20 01:46:30;;;;;;;26.61;24.54;;;;;;;17.02;77.40;100066.45;446594;117;930182;-84
2021/09/20 01:47:33;;;;;;;23.73;22.09;;;;;;;17.01;77.38;100059.27;448036;117;922584;-84
2021/09/20 01:48:37;;;;;;;24.34;22.67;;;;;;;17.02;77.44;100063.69;448182;117;930179;-83
2021/09/20 01:49:41;;;;;;;25.82;23.39;;;;;;;17.02;77.47;100067.28;446634;117;922550;-84
2021/09/20 01:50:46;;;;;;;24.89;23.22;;;;;;;17.03;77.43;100062.60;440730;119;930297;-83
2021/09/20 01:51:51;;;;;;;25.11;23.08;;;;;;;17.03;77.47;100057.92;440592;117;922996;-82
2021/09/20 01:52:55;;;;;;;24.90;23.30;;;;;;;17.06;77.48;100062.88;447108;117;930317;-83
2021/09/20 01:53:58;;;;;;;25.46;23.75;;;;;;;17.07;77.43;100060.95;446475;117;930144;-85
2021/09/20 01:55:04;;;;;;;24.88;23.22;;;;;;;17.08;77.32;100065.38;448535;117;923164;-83
2021/09/20 01:56:09;;;;;;;24.17;22.38;;;;;;;17.08;77.23;100063.45;448041;117;922613;-82
2021/09/20 01:57:13;;;;;;;25.04;23.31;;;;;;;17.06;77.17;100049.10;450373;117;923084;-84
2021/09/20 01:58:17;;;;;;;25.75;23.92;;;;;;;17.05;77.17;100055.70;448402;117;930239;-84
2021/09/20 01:59:20;;;;;;;24.59;22.91;;;;;;;17.05;77.15;100057.63;444295;117;930116;-84
2021/09/20 02:00:24;;;;;;;24.25;22.71;;;;;;;17.04;77.18;100056.80;447233;117;922809;-82
2021/09/20 02:01:28;;;;;;;24.96;23.31;;;;;;;17.04;77.22;100055.97;448219;117;922543;-84
2021/09/20 02:02:32;;;;;;;25.99;23.91;;;;;;;17.04;77.16;100053.21;444698;117;930440;-84
2021/09/20 02:03:36;;;;;;;24.29;22.34;;;;;;;17.03;77.26;100055.17;447969;117;922564;-84
2021/09/20 02:04:39;;;;;;;25.20;23.26;;;;;;;17.05;77.33;100049.37;446689;117;930376;-83
2021/09/20 02:05:43;;;;;;;25.05;23.32;;;;;;;17.05;77.23;100054.88;446956;117;930072;-84
2021/09/20 02:06:47;;;;;;;23.14;21.68;;;;;;;17.06;77.23;100048.27;445416;117;930150;-84
2021/09/20 02:07:50;;;;;;;24.24;22.72;;;;;;;17.05;77.19;100049.37;448777;117;923627;-84
2021/09/20 02:08:54;;;;;;;25.04;23.23;;;;;;;17.06;77.19;100048.27;447226;117;930262;-84
2021/09/20 02:09:58;;;;;;;24.72;22.92;;;;;;;17.06;77.23;100043.59;447248;116;930300;-84
2021/09/20 02:11:03;;;;;;;24.14;22.44;;;;;;;17.05;77.18;100041.10;446557;117;922490;-83
2021/09/20 02:12:07;;;;;;;24.97;23.24;;;;;;;17.04;77.21;100037.52;448581;117;922381;-84
2021/09/20 02:13:11;;;;;;;24.64;22.94;;;;;;;17.06;77.38;100031.75;448750;117;923172;-83
2021/09/20 02:14:14;;;;;;;25.40;23.64;;;;;;;17.06;77.38;100031.75;442977;118;930269;-83
2021/09/20 02:15:18;;;;;;;24.43;22.63;;;;;;;17.04;77.21;100034.77;440760;120;930237;-85
2021/09/20 02:16:22;;;;;;;24.38;22.75;;;;;;;17.04;77.17;100034.77;441582;118;922758;-83
2021/09/20 02:17:26;;;;;;;26.11;24.01;;;;;;;17.03;77.21;100032.30;448664;118;922585;-83
2021/09/20 02:18:29;;;;;;;25.15;23.37;;;;;;;17.03;77.16;100033.13;447480;118;930226;-84
2021/09/20 02:19:33;;;;;;;25.81;23.85;;;;;;;17.02;77.01;100036.98;445229;116;923087;-84
2021/09/20 02:20:37;;;;;;;24.22;22.59;;;;;;;16.99;76.95;100040.26;446620;118;930387;-83
2021/09/20 02:21:40;;;;;;;24.68;22.77;;;;;;;16.96;76.87;100032.55;446123;117;922986;-84
2021/09/20 02:22:44;;;;;;;25.19;23.27;;;;;;;16.92;76.81;100036.95;451422;115;930242;-84
2021/09/20 02:23:47;;;;;;;25.68;23.94;;;;;;;16.89;76.81;100034.72;450340;117;923088;-83
2021/09/20 02:24:51;;;;;;;25.31;23.09;;;;;;;16.85;76.85;100041.87;447028;117;923044;-84
2021/09/20 02:25:55;;;;;;;26.64;24.60;;;;;;;16.83;76.86;100043.22;446832;117;923003;-83
2021/09/20 02:26:59;;;;;;;26.50;24.16;;;;;;;16.80;76.92;100039.09;448298;116;922472;-83
2021/09/20 02:28:02;;;;;;;25.44;23.51;;;;;;;16.78;76.97;100037.70;448335;117;922581;-83
2021/09/20 02:29:06;;;;;;;24.75;23.07;;;;;;;16.76;77.01;100040.70;448672;117;930198;-84
2021/09/20 02:30:11;;;;;;;25.39;23.57;;;;;;;16.75;77.08;100041.83;447546;117;930275;-84
2021/09/20 02:31:14;;;;;;;24.54;22.57;;;;;;;16.74;77.14;100044.84;462113;114;922360;-83
2021/09/20 02:32:19;;;;;;;24.93;22.99;;;;;;;16.73;77.22;100037.67;463723;114;922749;-83
2021/09/20 02:33:23;;;;;;;22.96;21.39;;;;;;;16.73;77.30;100035.75;460757;112;923002;-84
2021/09/20 02:34:27;;;;;;;24.35;22.68;;;;;;;16.73;77.35;100032.17;463264;114;922984;-83
2021/09/20 02:35:30;;;;;;;24.16;22.48;;;;;;;16.74;77.41;100031.08;461914;114;922577;-83
2021/09/20 02:36:34;;;;;;;25.28;23.65;;;;;;;16.76;77.43;100034.40;453131;115;922625;-82
2021/09/20 02:37:39;;;;;;;24.24;22.69;;;;;;;16.75;77.32;100033.57;455088;114;930394;-84
2021/09/20 02:38:43;;;;;;;24.38;22.75;;;;;;;16.75;77.27;100030.81;458315;113;922645;-84
2021/09/20 02:39:47;;;;;;;25.09;23.35;;;;;;;16.73;77.24;100027.49;459469;113;930291;-84
2021/09/20 02:40:51;;;;;;;25.01;23.28;;;;;;;16.72;77.30;100025.00;460176;113;922513;-84
2021/09/20 02:41:56;;;;;;;24.54;22.83;;;;;;;16.72;77.37;100025.00;460361;112;923093;-83
2021/09/20 02:42:59;;;;;;;25.06;23.09;;;;;;;16.72;77.49;100023.08;460811;114;923084;-83
2021/09/20 02:44:03;;;;;;;26.18;24.12;;;;;;;16.74;77.52;100022.81;460950;112;930236;-82
2021/09/20 02:45:08;;;;;;;25.95;24.11;;;;;;;16.76;77.52;100017.88;462509;114;922505;-83
2021/09/20 02:46:13;;;;;;;26.26;24.22;;;;;;;16.77;77.49;100025.02;460904;114;922490;-83
2021/09/20 02:47:16;;;;;;;26.67;24.79;;;;;;;16.77;77.51;100017.59;462739;114;922493;-84
2021/09/20 02:48:20;;;;;;;26.78;24.64;;;;;;;16.78;77.55;100019.25;461962;113;923067;-83
2021/09/20 02:49:24;;;;;;;27.24;25.01;;;;;;;16.80;77.45;100021.75;461335;113;922542;-82
2021/09/20 02:50:28;;;;;;;25.46;23.64;;;;;;;16.80;77.35;100022.58;461130;114;923017;-83
2021/09/20 02:51:31;;;;;;;25.01;23.30;;;;;;;16.78;77.26;100024.76;461449;113;922549;-84
2021/09/20 02:52:35;;;;;;;26.16;24.31;;;;;;;16.77;77.23;100020.34;460545;114;922751;-83
2021/09/20 02:53:38;;;;;;;25.20;23.12;;;;;;;16.75;77.22;100017.05;461588;114;923074;-83
2021/09/20 02:54:42;;;;;;;25.16;23.36;;;;;;;16.73;77.19;100021.98;462940;113;927197;-83
2021/09/20 02:55:45;;;;;;;26.27;24.56;;;;;;;16.72;77.27;100022.25;459732;114;930104;-84
2021/09/20 02:56:49;;;;;;;26.08;24.15;;;;;;;16.71;77.30;100020.59;461937;112;930688;-83
2021/09/20 02:57:53;;;;;;;24.98;23.16;;;;;;;16.71;77.35;100009.57;461807;112;923030;-83
2021/09/20 02:58:56;;;;;;;25.04;23.31;;;;;;;16.71;77.34;100012.33;463107;112;930314;-83
2021/09/20 03:00:00;;;;;;;25.52;23.83;;;;;;;16.71;77.44;100004.06;460639;114;923063;-84
2021/09/20 03:01:04;;;;;;;24.70;22.99;;;;;;;16.71;77.43;100013.16;462220;111;923058;-84
2021/09/20 03:02:07;;;;;;;25.19;23.05;;;;;;;16.72;77.45;100012.06;461662;113;922565;-84
2021/09/20 03:03:11;;;;;;;25.11;23.17;;;;;;;16.72;77.46;100014.82;463112;111;922435;-84
2021/09/20 03:04:16;;;;;;;26.05;24.13;;;;;;;16.73;77.35;100016.48;461668;111;922891;-85
2021/09/20 03:05:20;;;;;;;24.85;23.11;;;;;;;16.71;77.29;100018.66;460161;112;923000;-83
2021/09/20 03:06:23;;;;;;;25.88;24.08;;;;;;;16.71;77.32;100017.83;461671;112;923067;-84
2021/09/20 03:07:27;;;;;;;26.36;24.26;;;;;;;16.70;77.31;100018.95;461180;114;922977;-83
2021/09/20 03:08:31;;;;;;;26.44;24.52;;;;;;;16.69;77.29;100026.38;463339;112;922655;-83
2021/09/20 03:09:34;;;;;;;26.12;24.14;;;;;;;16.67;77.26;100023.89;461538;112;930402;-84
2021/09/20 03:10:40;;;;;;;25.25;23.27;;;;;;;16.67;77.34;100023.89;462085;114;922580;-83
2021/09/20 03:11:43;;;;;;;24.94;23.00;;;;;;;16.68;77.45;100024.72;456021;115;922656;-85
2021/09/20 03:12:47;;;;;;;26.09;24.21;;;;;;;16.69;77.44;100026.38;454433;114;923054;-82
2021/09/20 03:13:50;;;;;;;25.79;23.97;;;;;;;16.70;77.43;100022.53;460633;114;922877;-83
2021/09/20 03:14:54;;;;;;;26.28;24.12;;;;;;;16.71;77.42;100029.67;460609;112;922565;-82
2021/09/20 03:15:57;;;;;;;26.04;24.07;;;;;;;16.73;77.46;100021.16;461660;114;922304;-82
2021/09/20 03:17:02;;;;;;;24.71;22.79;;;;;;;16.75;77.49;100022.55;454985;115;930115;-83
2021/09/20 03:18:05;;;;;;;25.15;23.34;;;;;;;16.77;77.58;100022.27;454624;114;922332;-82
2021/09/20 03:19:09;;;;;;;25.49;23.65;;;;;;;16.80;77.59;100022.58;462758;113;922089;-82
2021/09/20 03:20:15;;;;;;;24.80;22.95;;;;;;;16.82;77.54;100028.62;462157;113;922813;-83
2021/09/20 03:21:23;;;;;;;25.63;23.84;;;;;;;16.84;77.49;100018.17;460199;114;922833;-84
2021/09/20 03:22:25;;;;;;;25.57;23.72;;;;;;;16.85;77.39;100027.27;452796;114;922469;-82
2021/09/20 03:23:28;;;;;;;25.81;23.70;;;;;;;16.85;77.39;100017.09;453678;114;922617;-83
2021/09/20 03:24:32;;;;;;;25.36;23.18;;;;;;;16.86;77.42;100017.91;460282;114;922620;-83
2021/09/20 03:25:36;;;;;;;25.76;23.96;;;;;;;16.88;77.45;100015.70;462911;113;930233;-83
2021/09/20 03:26:41;;;;;;;25.91;24.12;;;;;;;16.89;77.46;100017.36;461778;112;930181;-84
2021/09/20 03:27:45;;;;;;;26.94;24.86;;;;;;;16.90;77.45;100017.10;462750;114;922580;-83
2021/09/20 03:28:48;;;;;;;26.17;24.14;;;;;;;16.90;77.40;100025.36;459550;114;923277;-84
2021/09/20 03:29:54;;;;;;;26.27;24.62;;;;;;;16.91;77.41;100031.70;461410;114;923060;-83
2021/09/20 03:30:58;;;;;;;26.89;24.86;;;;;;;16.92;77.47;100025.10;461827;112;922879;-84
2021/09/20 03:32:03;;;;;;;27.14;25.01;;;;;;;16.92;77.47;100028.69;459872;114;922911;-85
2021/09/20 03:33:06;;;;;;;26.33;24.35;;;;;;;16.92;77.56;100028.69;464455;114;922417;-83
2021/09/20 03:34:10;;;;;;;26.01;24.24;;;;;;;16.94;77.65;100023.72;462463;114;922476;-82
2021/09/20 03:35:15;;;;;;;26.89;25.04;;;;;;;16.98;77.34;100027.58;454235;115;922714;-84
2021/09/20 03:36:20;;;;;;;26.63;24.83;;;;;;;16.98;77.34;100027.58;455344;115;930244;-84
2021/09/20 03:37:24;;;;;;;26.25;24.49;;;;;;;17.00;77.77;100030.91;462383;113;922443;-83
2021/09/20 03:38:28;;;;;;;26.06;24.38;;;;;;;17.02;77.72;100028.72;461464;113;922676;-85
2021/09/20 03:39:31;;;;;;;27.06;25.01;;;;;;;17.02;77.72;100025.96;460674;114;922476;-84
2021/09/20 03:40:36;;;;;;;27.71;25.55;;;;;;;17.04;77.76;100029.25;461524;114;923063;-83
2021/09/20 03:41:40;;;;;;;27.98;25.97;;;;;;;17.05;77.71;100030.09;460373;114;923114;-83
2021/09/20 03:42:44;;;;;;;28.05;25.99;;;;;;;17.05;77.75;100030.92;462184;113;922529;-83
2021/09/20 03:43:48;;;;;;;26.57;24.83;;;;;;;17.07;77.81;100033.41;462577;113;922838;-83
2021/09/20 03:44:52;;;;;;;26.76;25.03;;;;;;;17.09;77.83;100029.27;462077;113;923195;-83
2021/09/20 03:45:55;;;;;;;24.49;22.64;;;;;;;17.12;77.84;100036.17;462348;112;922620;-84
2021/09/20 03:47:01;;;;;;;27.62;25.91;;;;;;;17.15;77.89;100037.55;461906;113;922557;-83
2021/09/20 03:48:05;;;;;;;26.89;25.14;;;;;;;17.18;77.83;100034.27;461947;114;922828;-83
2021/09/20 03:49:08;;;;;;;27.39;25.35;;;;;;;17.20;77.69;100034.83;462808;112;922449;-84
2021/09/20 03:50:14;;;;;;;26.36;24.55;;;;;;;17.22;77.64;100036.20;461996;114;922412;-84
2021/09/20 03:51:17;;;;;;;26.34;24.57;;;;;;;17.24;77.59;100033.18;463442;114;922370;-84
2021/09/20 03:52:21;;;;;;;26.89;25.19;;;;;;;17.25;77.45;100030.16;462146;114;922893;-83
2021/09/20 03:53:25;;;;;;;24.94;23.15;;;;;;;17.28;77.41;100034.28;462321;113;930189;-83
2021/09/20 03:54:28;;;;;;;24.82;23.24;;;;;;;17.29;77.43;100035.95;459922;113;922931;-83
2021/09/20 03:55:32;;;;;;;26.97;24.97;;;;;;;17.30;77.41;100046.70;462314;114;922790;-83
2021/09/20 03:56:37;;;;;;;25.20;23.37;;;;;;;17.31;77.38;100042.83;462344;114;922392;-83
2021/09/20 03:57:40;;;;;;;25.88;23.73;;;;;;;17.33;77.40;100048.91;462383;114;922499;-83
2021/09/20 03:58:44;;;;;;;25.49;23.46;;;;;;;17.34;77.30;100056.08;461936;113;929802;-85
2021/09/20 03:59:47;;;;;;;25.71;23.85;;;;;;;17.35;77.21;100056.91;463044;114;922294;-86
2021/09/20 04:00:52;;;;;;;24.85;23.21;;;;;;;17.37;77.19;100065.71;461879;113;922850;-83
2021/09/20 04:01:57;;;;;;;25.75;24.11;;;;;;;17.38;77.23;100061.86;454893;114;922196;-83
2021/09/20 04:03:00;;;;;;;25.52;23.84;;;;;;;17.39;77.14;100061.59;455629;114;922936;-84
2021/09/20 04:04:05;;;;;;;24.28;22.73;;;;;;;17.40;77.04;100068.77;462792;112;922883;-82
2021/09/20 04:05:09;;;;;;;25.78;24.06;;;;;;;17.41;77.07;100064.09;463955;113;922622;-85
2021/09/20 04:06:15;;;;;;;24.46;22.89;;;;;;;17.42;77.03;100074.81;460909;112;922313;-84
2021/09/20 04:07:19;;;;;;;26.87;24.86;;;;;;;17.43;76.96;100070.97;460952;114;922340;-85
2021/09/20 04:08:29;;;;;;;28.14;25.82;;;;;;;17.44;76.95;100074.55;461530;114;922362;-82
2021/09/20 04:09:33;;;;;;;28.71;26.76;;;;;;;17.45;76.91;100073.45;462171;112;922531;-82
2021/09/20 04:10:37;;;;;;;29.91;27.55;;;;;;;17.46;76.93;100075.95;461995;113;922805;-83
2021/09/20 04:11:41;;;;;;;29.32;27.09;;;;;;;17.47;76.90;100085.88;462756;113;922335;-83
2021/09/20 04:12:45;;;;;;;28.47;26.47;;;;;;;17.48;76.83;100079.24;463507;113;922116;-82
2021/09/20 04:13:48;;;;;;;29.08;26.65;;;;;;;17.50;76.75;100081.73;460719;112;930597;-84
2021/09/20 04:14:52;;;;;;;28.28;26.06;;;;;;;17.51;76.72;100088.91;460925;113;923026;-82
2021/09/20 04:15:56;;;;;;;85.16;29.34;;;;;;;17.51;76.60;100091.67;463046;113;930473;-81
2021/09/20 04:17:02;;;;;;;27.46;24.75;;;;;;;17.50;76.57;100093.59;462845;113;922424;-83
2021/09/20 04:18:06;;;;;;;34.82;25.45;;;;;;;17.51;76.53;100086.16;460868;114;930503;-83
2021/09/20 04:19:10;;;;;;;26.48;24.15;;;;;;;17.51;76.51;100097.18;462255;113;922588;-84
2021/09/20 04:20:15;;;;;;;25.62;23.92;;;;;;;17.52;76.47;100090.58;462710;112;922520;-83
2021/09/20 04:21:19;;;;;;;25.89;23.91;;;;;;;17.53;76.41;100098.55;462190;113;922468;-83
2021/09/20 04:22:22;;;;;;;25.36;23.67;;;;;;;17.55;76.38;100090.02;459656;113;930289;-82
2021/09/20 04:23:26;;;;;;;24.06;22.33;;;;;;;17.57;76.42;100103.53;462465;113;922655;-83
2021/09/20 04:24:30;;;;;;;24.99;23.08;;;;;;;17.59;76.42;100102.14;461346;112;923011;-81
2021/09/20 04:25:33;;;;;;;26.66;24.74;;;;;;;17.61;76.30;100102.74;462938;113;923019;-82
2021/09/20 04:26:39;;;;;;;25.35;23.54;;;;;;;17.63;76.19;100103.31;460206;113;923310;-83
2021/09/20 04:27:42;;;;;;;24.79;23.22;;;;;;;17.64;76.09;100104.14;460361;112;923051;-82
2021/09/20 04:28:45;;;;;;;26.50;24.71;;;;;;;17.63;75.95;100108.83;461798;114;922794;-82
2021/09/20 04:29:49;;;;;;;25.60;24.04;;;;;;;17.64;75.89;100107.70;461430;114;922831;-82
2021/09/20 04:30:53;;;;;;;25.82;24.08;;;;;;;17.64;75.81;100104.14;461901;112;930195;-82
2021/09/20 04:31:58;;;;;;;25.22;23.44;;;;;;;17.64;75.79;100110.45;462391;112;923146;-82
2021/09/20 04:33:01;;;;;;;24.49;22.85;;;;;;;17.63;75.66;100102.48;461428;113;922354;-82
2021/09/20 04:34:05;;;;;;;25.12;23.16;;;;;;;17.62;75.56;100109.92;462186;114;922535;-85
2021/09/20 04:35:09;;;;;;;25.02;23.42;;;;;;;17.61;75.53;100107.43;463116;112;923006;-83
2021/09/20 04:36:14;;;;;;;26.42;24.58;;;;;;;17.58;75.54;100106.03;462368;113;922400;-83
2021/09/20 04:37:18;;;;;;;25.82;24.16;;;;;;;17.56;75.61;100105.46;461710;114;922518;-83
2021/09/20 04:38:22;;;;;;;25.99;24.23;;;;;;;17.56;75.71;100108.22;463506;112;923025;-82
2021/09/20 04:39:25;;;;;;;26.16;24.11;;;;;;;17.58;75.69;100099.69;462122;112;922899;-82
2021/09/20 04:40:31;;;;;;;25.73;23.90;;;;;;;17.57;75.69;100101.61;460567;112;930366;-82
2021/09/20 04:41:35;;;;;;;26.35;24.49;;;;;;;17.59;75.65;100095.83;462404;113;923106;-82
2021/09/20 04:42:39;;;;;;;25.32;23.63;;;;;;;17.60;75.66;100098.33;454658;114;922837;-83
2021/09/20 04:43:42;;;;;;;27.07;25.17;;;;;;;17.61;75.54;100099.98;454866;114;922622;-83
2021/09/20 04:44:46;;;;;;;26.15;24.24;;;;;;;17.62;75.45;100107.16;460402;114;930194;-81
2021/09/20 04:45:50;;;;;;;25.97;23.94;;;;;;;17.62;75.51;100103.58;462835;112;923509;-82
2021/09/20 04:46:54;;;;;;;25.45;23.73;;;;;;;17.63;75.46;100094.20;462901;114;923851;-82
2021/09/20 04:47:58;;;;;;;26.93;24.35;;;;;;;17.65;75.37;100097.50;463721;114;922391;-82